sensor_id;sensor_type;location;lat;lon;timestamp;pressure;altitude;pressure_sealevel;temperature;humidity
32747;BME280;19118;50.860;13.662;2022-12-29T00:00:27;96339.44;;;6.76;100.00
32747;BME280;19118;50.860;13.662;2022-12-29T00:05:28;96322.16;;;6.88;100.00
32747;BME280;19118;50.860;13.662;2022-12-29T00:10:28;96319.16;;;6.91;100.00
32747;BME280;19118;50.860;13.662;2022-12-29T00:15:28;96319.88;;;7.06;100.00
32747;BME280;19118;50.860;13.662;2022-12-29T00:20:38;96312.00;;;7.06;100.00
32747;BME280;19118;50.860;13.662;2022-12-29T00:25:57;96324.13;;;7.07;100.00
32747;BME280;19118;50.860;13.662;2022-12-29T00:31:15;96344.38;;;7.13;100.00
32747;BME280;19118;50.860;13.662;2022-12-29T00:36:37;96342.38;;;7.15;100.00
32747;BME280;19118;50.860;13.662;2022-12-29T00:41:39;96347.53;;;7.02;100.00
32747;BME280;19118;50.860;13.662;2022-12-29T00:46:58;96319.53;;;6.88;100.00
32747;BME280;19118;50.860;13.662;2022-12-29T00:52:05;96314.66;;;6.85;100.00
32747;BME280;19118;50.860;13.662;2022-12-29T00:57:08;96294.59;;;6.77;100.00
32747;BME280;19118;50.860;13.662;2022-12-29T01:02:09;96294.78;;;6.76;100.00
32747;BME280;19118;50.860;13.662;2022-12-29T01:07:09;96280.84;;;6.75;100.00
32747;BME280;19118;50.860;13.662;2022-12-29T01:12:11;96247.75;;;6.81;100.00
32747;BME280;19118;50.860;13.662;2022-12-29T01:17:11;96271.00;;;6.84;100.00
32747;BME280;19118;50.860;13.662;2022-12-29T01:22:12;96264.06;;;6.76;100.00
32747;BME280;19118;50.860;13.662;2022-12-29T01:27:13;96255.38;;;6.76;100.00
32747;BME280;19118;50.860;13.662;2022-12-29T01:32:15;96267.03;;;6.66;100.00
32747;BME280;19118;50.860;13.662;2022-12-29T01:37:15;96240.53;;;6.61;100.00
32747;BME280;19118;50.860;13.662;2022-12-29T01:42:18;96265.91;;;6.54;100.00
32747;BME280;19118;50.860;13.662;2022-12-29T01:47:41;96262.69;;;6.52;100.00
32747;BME280;19118;50.860;13.662;2022-12-29T01:52:52;96267.69;;;6.47;100.00
32747;BME280;19118;50.860;13.662;2022-12-29T01:57:57;96260.44;;;6.49;100.00
32747;BME280;19118;50.860;13.662;2022-12-29T02:02:59;96273.47;;;6.64;100.00
32747;BME280;19118;50.860;13.662;2022-12-29T02:08:01;96251.84;;;6.62;100.00
32747;BME280;19118;50.860;13.662;2022-12-29T02:13:01;96253.84;;;6.60;100.00
32747;BME280;19118;50.860;13.662;2022-12-29T02:23:30;96244.03;;;6.68;100.00
32747;BME280;19118;50.860;13.662;2022-12-29T02:39:20;96211.91;;;7.08;100.00
32747;BME280;19118;50.860;13.662;2022-12-29T02:49:49;96200.47;;;7.28;100.00
32747;BME280;19118;50.860;13.662;2022-12-29T02:54:54;96190.38;;;7.39;100.00
32747;BME280;19118;50.860;13.662;2022-12-29T02:59:58;96192.22;;;7.38;100.00
32747;BME280;19118;50.860;13.662;2022-12-29T03:15:44;96214.28;;;7.44;100.00
32747;BME280;19118;50.860;13.662;2022-12-29T03:26:14;96215.13;;;7.51;100.00
32747;BME280;19118;50.860;13.662;2022-12-29T03:31:17;96205.84;;;7.62;100.00
32747;BME280;19118;50.860;13.662;2022-12-29T03:36:28;96194.47;;;7.54;100.00
32747;BME280;19118;50.860;13.662;2022-12-29T03:41:32;96193.72;;;7.74;100.00
32747;BME280;19118;50.860;13.662;2022-12-29T03:46:36;96178.75;;;7.74;100.00
32747;BME280;19118;50.860;13.662;2022-12-29T03:51:37;96179.97;;;7.85;100.00
32747;BME280;19118;50.860;13.662;2022-12-29T03:56:39;96179.94;;;7.78;100.00
32747;BME280;19118;50.860;13.662;2022-12-29T04:01:39;96177.56;;;7.83;100.00
32747;BME280;19118;50.860;13.662;2022-12-29T04:06:41;96163.78;;;7.88;100.00
32747;BME280;19118;50.860;13.662;2022-12-29T04:11:42;96167.03;;;7.97;100.00
32747;BME280;19118;50.860;13.662;2022-12-29T04:16:42;96172.28;;;7.97;100.00
32747;BME280;19118;50.860;13.662;2022-12-29T04:21:43;96163.97;;;8.00;100.00
32747;BME280;19118;50.860;13.662;2022-12-29T04:26:43;96159.53;;;8.13;100.00
32747;BME280;19118;50.860;13.662;2022-12-29T04:31:57;96154.47;;;8.12;100.00
32747;BME280;19118;50.860;13.662;2022-12-29T04:36:58;96162.97;;;8.14;100.00
32747;BME280;19118;50.860;13.662;2022-12-29T04:41:59;96171.09;;;8.19;100.00
32747;BME280;19118;50.860;13.662;2022-12-29T04:47:00;96161.38;;;8.20;100.00
32747;BME280;19118;50.860;13.662;2022-12-29T04:52:14;96171.47;;;8.23;100.00
32747;BME280;19118;50.860;13.662;2022-12-29T04:57:16;96170.47;;;8.17;100.00
32747;BME280;19118;50.860;13.662;2022-12-29T05:02:21;96197.44;;;8.19;100.00
32747;BME280;19118;50.860;13.662;2022-12-29T05:07:24;96211.59;;;8.11;100.00
32747;BME280;19118;50.860;13.662;2022-12-29T05:12:25;96188.50;;;8.07;100.00
32747;BME280;19118;50.860;13.662;2022-12-29T05:17:32;96208.75;;;7.93;100.00
32747;BME280;19118;50.860;13.662;2022-12-29T05:22:33;96212.38;;;7.92;100.00
32747;BME280;19118;50.860;13.662;2022-12-29T05:27:34;96210.78;;;7.98;100.00
32747;BME280;19118;50.860;13.662;2022-12-29T05:32:43;96200.25;;;7.98;100.00
32747;BME280;19118;50.860;13.662;2022-12-29T05:37:44;96201.44;;;8.02;100.00
32747;BME280;19118;50.860;13.662;2022-12-29T05:42:44;96207.31;;;8.04;100.00
32747;BME280;19118;50.860;13.662;2022-12-29T05:47:55;96216.63;;;8.00;100.00
32747;BME280;19118;50.860;13.662;2022-12-29T05:53:14;96208.34;;;8.03;100.00
32747;BME280;19118;50.860;13.662;2022-12-29T05:58:17;96191.13;;;8.00;100.00
32747;BME280;19118;50.860;13.662;2022-12-29T06:03:17;96213.22;;;8.06;100.00
32747;BME280;19118;50.860;13.662;2022-12-29T06:08:18;96225.75;;;8.04;100.00
32747;BME280;19118;50.860;13.662;2022-12-29T06:13:18;96221.13;;;8.06;100.00
32747;BME280;19118;50.860;13.662;2022-12-29T06:18:22;96229.03;;;8.06;100.00
32747;BME280;19118;50.860;13.662;2022-12-29T06:23:23;96215.25;;;8.17;100.00
32747;BME280;19118;50.860;13.662;2022-12-29T06:28:23;96222.94;;;8.18;100.00
32747;BME280;19118;50.860;13.662;2022-12-29T06:33:24;96219.28;;;8.00;100.00
32747;BME280;19118;50.860;13.662;2022-12-29T06:38:25;96206.28;;;7.72;100.00
32747;BME280;19118;50.860;13.662;2022-12-29T06:43:25;96205.16;;;7.46;100.00
32747;BME280;19118;50.860;13.662;2022-12-29T06:48:31;96199.72;;;7.48;100.00
32747;BME280;19118;50.860;13.662;2022-12-29T06:53:31;96198.91;;;7.47;100.00
32747;BME280;19118;50.860;13.662;2022-12-29T06:58:32;96187.19;;;7.50;100.00
32747;BME280;19118;50.860;13.662;2022-12-29T07:03:32;96179.91;;;7.52;100.00
32747;BME280;19118;50.860;13.662;2022-12-29T07:08:33;96182.13;;;7.48;100.00
32747;BME280;19118;50.860;13.662;2022-12-29T07:13:33;96178.28;;;7.51;100.00
32747;BME280;19118;50.860;13.662;2022-12-29T07:18:34;96187.78;;;7.52;100.00
32747;BME280;19118;50.860;13.662;2022-12-29T07:23:34;96209.88;;;7.64;100.00
32747;BME280;19118;50.860;13.662;2022-12-29T07:28:35;96211.97;;;8.02;100.00
32747;BME280;19118;50.860;13.662;2022-12-29T07:33:36;96210.56;;;8.12;100.00
32747;BME280;19118;50.860;13.662;2022-12-29T07:38:36;96191.94;;;8.14;100.00
32747;BME280;19118;50.860;13.662;2022-12-29T07:43:36;96190.50;;;7.92;100.00
32747;BME280;19118;50.860;13.662;2022-12-29T07:48:56;96171.03;;;7.66;100.00
32747;BME280;19118;50.860;13.662;2022-12-29T07:53:56;96183.59;;;7.77;100.00
32747;BME280;19118;50.860;13.662;2022-12-29T07:58:56;96196.16;;;7.88;100.00
32747;BME280;19118;50.860;13.662;2022-12-29T08:03:56;96199.81;;;7.87;100.00
32747;BME280;19118;50.860;13.662;2022-12-29T08:08:57;96202.28;;;7.96;100.00
32747;BME280;19118;50.860;13.662;2022-12-29T08:13:58;96195.38;;;7.95;100.00
32747;BME280;19118;50.860;13.662;2022-12-29T08:18:58;96190.91;;;8.15;100.00
32747;BME280;19118;50.860;13.662;2022-12-29T08:23:59;96185.28;;;8.18;100.00
32747;BME280;19118;50.860;13.662;2022-12-29T08:28:59;96209.56;;;8.27;100.00
32747;BME280;19118;50.860;13.662;2022-12-29T08:33:59;96197.41;;;8.32;100.00
32747;BME280;19118;50.860;13.662;2022-12-29T08:39:00;96204.34;;;8.40;100.00
32747;BME280;19118;50.860;13.662;2022-12-29T08:44:00;96211.84;;;8.50;100.00
32747;BME280;19118;50.860;13.662;2022-12-29T08:49:01;96212.84;;;8.62;100.00
32747;BME280;19118;50.860;13.662;2022-12-29T08:54:01;96225.16;;;8.81;100.00
32747;BME280;19118;50.860;13.662;2022-12-29T08:59:01;96216.06;;;8.84;100.00
32747;BME280;19118;50.860;13.662;2022-12-29T09:04:04;96210.78;;;8.84;100.00
32747;BME280;19118;50.860;13.662;2022-12-29T09:09:04;96217.69;;;8.78;100.00
32747;BME280;19118;50.860;13.662;2022-12-29T09:14:05;96217.28;;;8.68;100.00
32747;BME280;19118;50.860;13.662;2022-12-29T09:19:05;96211.22;;;8.61;100.00
32747;BME280;19118;50.860;13.662;2022-12-29T09:24:05;96214.25;;;8.58;100.00
32747;BME280;19118;50.860;13.662;2022-12-29T09:29:06;96220.56;;;8.50;100.00
32747;BME280;19118;50.860;13.662;2022-12-29T09:34:06;96223.78;;;8.59;100.00
32747;BME280;19118;50.860;13.662;2022-12-29T09:39:07;96205.72;;;8.69;100.00
32747;BME280;19118;50.860;13.662;2022-12-29T09:44:23;96199.03;;;8.66;100.00
32747;BME280;19118;50.860;13.662;2022-12-29T09:49:32;96192.19;;;8.52;100.00
32747;BME280;19118;50.860;13.662;2022-12-29T09:54:51;96205.13;;;8.47;100.00
32747;BME280;19118;50.860;13.662;2022-12-29T09:59:59;96206.34;;;8.58;100.00
32747;BME280;19118;50.860;13.662;2022-12-29T10:05:23;96219.53;;;8.58;100.00
32747;BME280;19118;50.860;13.662;2022-12-29T10:10:37;96211.03;;;8.42;100.00
32747;BME280;19118;50.860;13.662;2022-12-29T10:26:27;96206.75;;;8.68;100.00
32747;BME280;19118;50.860;13.662;2022-12-29T10:31:43;96202.28;;;8.68;100.00
32747;BME280;19118;50.860;13.662;2022-12-29T10:36:48;96191.72;;;8.82;100.00
32747;BME280;19118;50.860;13.662;2022-12-29T10:42:14;96196.94;;;9.08;100.00
32747;BME280;19118;50.860;13.662;2022-12-29T10:47:18;96179.59;;;9.32;100.00
32747;BME280;19118;50.860;13.662;2022-12-29T10:52:22;96163.25;;;9.55;100.00
32747;BME280;19118;50.860;13.662;2022-12-29T10:57:44;96160.56;;;9.61;100.00
32747;BME280;19118;50.860;13.662;2022-12-29T11:08:21;96154.13;;;9.82;100.00
32747;BME280;19118;50.860;13.662;2022-12-29T11:13:29;96161.97;;;9.96;100.00
32747;BME280;19118;50.860;13.662;2022-12-29T11:18:36;96146.84;;;10.09;99.61
32747;BME280;19118;50.860;13.662;2022-12-29T11:23:41;96151.97;;;10.29;98.22
32747;BME280;19118;50.860;13.662;2022-12-29T11:28:44;96152.94;;;10.60;97.54
32747;BME280;19118;50.860;13.662;2022-12-29T11:33:45;96153.44;;;10.50;97.36
32747;BME280;19118;50.860;13.662;2022-12-29T11:38:48;96145.84;;;10.35;98.44
32747;BME280;19118;50.860;13.662;2022-12-29T11:43:49;96153.66;;;10.24;99.52
32747;BME280;19118;50.860;13.662;2022-12-29T11:48:50;96150.44;;;10.15;100.00
32747;BME280;19118;50.860;13.662;2022-12-29T11:53:55;96148.47;;;10.10;100.00
32747;BME280;19118;50.860;13.662;2022-12-29T11:58:56;96147.81;;;10.15;100.00
32747;BME280;19118;50.860;13.662;2022-12-29T12:04:01;96150.75;;;10.32;99.93
32747;BME280;19118;50.860;13.662;2022-12-29T12:09:13;96144.16;;;10.41;97.77
32747;BME280;19118;50.860;13.662;2022-12-29T12:14:23;96132.59;;;10.60;97.62
32747;BME280;19118;50.860;13.662;2022-12-29T12:19:50;96140.97;;;10.75;94.87
32747;BME280;19118;50.860;13.662;2022-12-29T12:30:21;96143.03;;;10.73;92.85
32747;BME280;19118;50.860;13.662;2022-12-29T12:40:59;96128.91;;;10.98;90.19
32747;BME280;19118;50.860;13.662;2022-12-29T12:46:18;96130.91;;;11.02;88.82
32747;BME280;19118;50.860;13.662;2022-12-29T12:56:57;96112.38;;;11.21;88.13
32747;BME280;19118;50.860;13.662;2022-12-29T13:02:22;96113.38;;;10.90;89.62
32747;BME280;19118;50.860;13.662;2022-12-29T13:13:25;96109.53;;;11.04;88.35
32747;BME280;19118;50.860;13.662;2022-12-29T13:29:18;96116.75;;;10.78;88.88
32747;BME280;19118;50.860;13.662;2022-12-29T13:39:37;96124.44;;;10.43;92.44
32747;BME280;19118;50.860;13.662;2022-12-29T13:44:52;96137.22;;;10.22;94.47
32747;BME280;19118;50.860;13.662;2022-12-29T13:49:57;96143.09;;;10.24;93.61
32747;BME280;19118;50.860;13.662;2022-12-29T13:55:17;96139.06;;;10.14;94.67
32747;BME280;19118;50.860;13.662;2022-12-29T14:00:21;96147.75;;;9.97;96.52
32747;BME280;19118;50.860;13.662;2022-12-29T14:10:37;96169.28;;;9.93;96.94
32747;BME280;19118;50.860;13.662;2022-12-29T14:15:39;96168.91;;;9.97;97.05
32747;BME280;19118;50.860;13.662;2022-12-29T14:26:00;96165.09;;;9.54;99.89
32747;BME280;19118;50.860;13.662;2022-12-29T14:31:02;96179.97;;;9.36;100.00
32747;BME280;19118;50.860;13.662;2022-12-29T14:36:25;96169.78;;;9.52;100.00
32747;BME280;19118;50.860;13.662;2022-12-29T14:41:35;96180.13;;;9.47;100.00
32747;BME280;19118;50.860;13.662;2022-12-29T14:47:04;96181.00;;;9.28;100.00
32747;BME280;19118;50.860;13.662;2022-12-29T14:52:21;96190.38;;;9.24;100.00
32747;BME280;19118;50.860;13.662;2022-12-29T14:57:34;96180.63;;;9.31;100.00
32747;BME280;19118;50.860;13.662;2022-12-29T15:02:39;96186.50;;;9.33;100.00
32747;BME280;19118;50.860;13.662;2022-12-29T15:07:41;96175.00;;;9.14;100.00
32747;BME280;19118;50.860;13.662;2022-12-29T15:12:47;96197.53;;;9.10;100.00
32747;BME280;19118;50.860;13.662;2022-12-29T15:17:47;96188.47;;;8.80;100.00
32747;BME280;19118;50.860;13.662;2022-12-29T15:22:52;96209.59;;;8.53;100.00
32747;BME280;19118;50.860;13.662;2022-12-29T15:27:57;96205.56;;;8.44;100.00
32747;BME280;19118;50.860;13.662;2022-12-29T15:33:00;96217.47;;;8.07;100.00
32747;BME280;19118;50.860;13.662;2022-12-29T15:38:20;96207.13;;;7.99;100.00
32747;BME280;19118;50.860;13.662;2022-12-29T15:48:41;96238.09;;;7.90;100.00
32747;BME280;19118;50.860;13.662;2022-12-29T15:53:49;96254.84;;;7.76;100.00
32747;BME280;19118;50.860;13.662;2022-12-29T15:58:51;96255.69;;;7.89;100.00
32747;BME280;19118;50.860;13.662;2022-12-29T16:03:52;96282.94;;;8.30;100.00
32747;BME280;19118;50.860;13.662;2022-12-29T16:09:03;96278.50;;;8.43;100.00
32747;BME280;19118;50.860;13.662;2022-12-29T16:14:10;96267.56;;;8.60;100.00
32747;BME280;19118;50.860;13.662;2022-12-29T16:19:35;96280.13;;;8.58;100.00
32747;BME280;19118;50.860;13.662;2022-12-29T16:24:39;96282.56;;;8.66;100.00
32747;BME280;19118;50.860;13.662;2022-12-29T16:29:40;96286.00;;;8.60;100.00
32747;BME280;19118;50.860;13.662;2022-12-29T16:39:40;96303.84;;;8.44;100.00
32747;BME280;19118;50.860;13.662;2022-12-29T16:44:41;96305.47;;;8.45;100.00
32747;BME280;19118;50.860;13.662;2022-12-29T16:49:43;96301.03;;;8.53;100.00
32747;BME280;19118;50.860;13.662;2022-12-29T16:54:54;96291.44;;;8.32;100.00
32747;BME280;19118;50.860;13.662;2022-12-29T16:59:59;96305.16;;;8.14;100.00
32747;BME280;19118;50.860;13.662;2022-12-29T17:05:00;96293.81;;;8.13;100.00
32747;BME280;19118;50.860;13.662;2022-12-29T17:10:00;96300.91;;;8.13;100.00
32747;BME280;19118;50.860;13.662;2022-12-29T17:15:03;96316.91;;;8.05;100.00
32747;BME280;19118;50.860;13.662;2022-12-29T17:20:24;96313.44;;;7.98;100.00
32747;BME280;19118;50.860;13.662;2022-12-29T17:25:32;96302.25;;;7.82;100.00
32747;BME280;19118;50.860;13.662;2022-12-29T17:30:34;96311.53;;;7.78;100.00
32747;BME280;19118;50.860;13.662;2022-12-29T17:35:35;96310.28;;;7.61;100.00
32747;BME280;19118;50.860;13.662;2022-12-29T17:40:36;96313.47;;;7.50;100.00
32747;BME280;19118;50.860;13.662;2022-12-29T17:45:37;96318.91;;;7.48;100.00
32747;BME280;19118;50.860;13.662;2022-12-29T17:50:38;96313.47;;;7.15;100.00
32747;BME280;19118;50.860;13.662;2022-12-29T17:55:39;96328.03;;;6.90;100.00
32747;BME280;19118;50.860;13.662;2022-12-29T18:00:40;96320.34;;;6.88;100.00
32747;BME280;19118;50.860;13.662;2022-12-29T18:05:41;96322.63;;;6.70;100.00
32747;BME280;19118;50.860;13.662;2022-12-29T18:10:42;96340.34;;;6.19;100.00
32747;BME280;19118;50.860;13.662;2022-12-29T18:15:43;96332.22;;;6.13;100.00
32747;BME280;19118;50.860;13.662;2022-12-29T18:20:44;96335.97;;;5.75;100.00
32747;BME280;19118;50.860;13.662;2022-12-29T18:25:49;96343.78;;;5.39;100.00
32747;BME280;19118;50.860;13.662;2022-12-29T18:30:52;96343.59;;;5.25;100.00
32747;BME280;19118;50.860;13.662;2022-12-29T18:36:01;96352.00;;;5.50;100.00
32747;BME280;19118;50.860;13.662;2022-12-29T18:41:02;96353.41;;;5.97;100.00
32747;BME280;19118;50.860;13.662;2022-12-29T18:46:03;96340.47;;;6.53;100.00
32747;BME280;19118;50.860;13.662;2022-12-29T18:51:04;96335.81;;;6.77;100.00
32747;BME280;19118;50.860;13.662;2022-12-29T18:56:05;96321.84;;;6.69;100.00
32747;BME280;19118;50.860;13.662;2022-12-29T19:01:17;96320.22;;;6.68;100.00
32747;BME280;19118;50.860;13.662;2022-12-29T19:06:19;96330.56;;;6.77;100.00
32747;BME280;19118;50.860;13.662;2022-12-29T19:11:20;96311.22;;;6.84;100.00
32747;BME280;19118;50.860;13.662;2022-12-29T19:16:21;96313.59;;;7.07;100.00
32747;BME280;19118;50.860;13.662;2022-12-29T19:21:21;96304.56;;;7.16;100.00
32747;BME280;19118;50.860;13.662;2022-12-29T19:26:30;96313.94;;;7.25;100.00
32747;BME280;19118;50.860;13.662;2022-12-29T19:31:31;96311.19;;;7.47;100.00
32747;BME280;19118;50.860;13.662;2022-12-29T19:36:32;96309.91;;;7.71;100.00
32747;BME280;19118;50.860;13.662;2022-12-29T19:41:32;96313.72;;;7.68;100.00
32747;BME280;19118;50.860;13.662;2022-12-29T19:46:33;96317.41;;;7.80;100.00
32747;BME280;19118;50.860;13.662;2022-12-29T19:51:33;96314.41;;;7.83;100.00
32747;BME280;19118;50.860;13.662;2022-12-29T19:56:33;96297.16;;;7.81;100.00
32747;BME280;19118;50.860;13.662;2022-12-29T20:01:34;96289.69;;;7.78;100.00
32747;BME280;19118;50.860;13.662;2022-12-29T20:06:34;96292.09;;;7.79;100.00
32747;BME280;19118;50.860;13.662;2022-12-29T20:11:35;96287.53;;;7.47;100.00
32747;BME280;19118;50.860;13.662;2022-12-29T20:16:36;96302.75;;;7.17;100.00
32747;BME280;19118;50.860;13.662;2022-12-29T20:21:36;96300.88;;;7.11;100.00
32747;BME280;19118;50.860;13.662;2022-12-29T20:26:36;96303.75;;;6.88;100.00
32747;BME280;19118;50.860;13.662;2022-12-29T20:31:38;96299.53;;;6.65;100.00
32747;BME280;19118;50.860;13.662;2022-12-29T20:36:42;96301.16;;;6.38;100.00
32747;BME280;19118;50.860;13.662;2022-12-29T20:41:44;96306.47;;;6.02;100.00
32747;BME280;19118;50.860;13.662;2022-12-29T20:46:45;96313.94;;;6.05;100.00
32747;BME280;19118;50.860;13.662;2022-12-29T20:51:45;96311.38;;;5.91;100.00
32747;BME280;19118;50.860;13.662;2022-12-29T20:56:47;96327.91;;;5.76;100.00
32747;BME280;19118;50.860;13.662;2022-12-29T21:01:47;96324.78;;;5.51;100.00
32747;BME280;19118;50.860;13.662;2022-12-29T21:06:48;96334.28;;;5.52;100.00
32747;BME280;19118;50.860;13.662;2022-12-29T21:11:48;96340.16;;;5.69;100.00
32747;BME280;19118;50.860;13.662;2022-12-29T21:16:49;96345.94;;;5.50;100.00
32747;BME280;19118;50.860;13.662;2022-12-29T21:21:49;96350.63;;;5.54;100.00
32747;BME280;19118;50.860;13.662;2022-12-29T21:26:50;96348.56;;;5.65;100.00
32747;BME280;19118;50.860;13.662;2022-12-29T21:31:50;96364.56;;;5.40;100.00
32747;BME280;19118;50.860;13.662;2022-12-29T21:36:51;96367.94;;;5.34;100.00
32747;BME280;19118;50.860;13.662;2022-12-29T21:41:51;96364.66;;;5.32;100.00
32747;BME280;19118;50.860;13.662;2022-12-29T21:46:51;96370.88;;;5.02;100.00
32747;BME280;19118;50.860;13.662;2022-12-29T21:51:52;96374.50;;;5.30;100.00
32747;BME280;19118;50.860;13.662;2022-12-29T21:56:52;96387.91;;;5.35;100.00
32747;BME280;19118;50.860;13.662;2022-12-29T22:01:53;96391.97;;;5.23;100.00
32747;BME280;19118;50.860;13.662;2022-12-29T22:07:12;96396.22;;;5.24;100.00
32747;BME280;19118;50.860;13.662;2022-12-29T22:12:31;96408.38;;;5.17;100.00
32747;BME280;19118;50.860;13.662;2022-12-29T22:17:52;96409.28;;;5.09;100.00
32747;BME280;19118;50.860;13.662;2022-12-29T22:22:53;96422.84;;;5.13;100.00
32747;BME280;19118;50.860;13.662;2022-12-29T22:27:53;96429.84;;;5.35;100.00
32747;BME280;19118;50.860;13.662;2022-12-29T22:32:55;96426.16;;;5.44;100.00
32747;BME280;19118;50.860;13.662;2022-12-29T22:37:56;96413.25;;;5.20;100.00
32747;BME280;19118;50.860;13.662;2022-12-29T22:42:56;96414.34;;;5.11;100.00
32747;BME280;19118;50.860;13.662;2022-12-29T22:47:57;96421.56;;;5.09;100.00
32747;BME280;19118;50.860;13.662;2022-12-29T22:52:57;96424.28;;;5.01;100.00
32747;BME280;19118;50.860;13.662;2022-12-29T22:57:57;96426.16;;;5.07;100.00
32747;BME280;19118;50.860;13.662;2022-12-29T23:02:58;96430.53;;;5.14;100.00
32747;BME280;19118;50.860;13.662;2022-12-29T23:07:59;96422.25;;;5.40;100.00
32747;BME280;19118;50.860;13.662;2022-12-29T23:12:59;96428.34;;;5.55;100.00
32747;BME280;19118;50.860;13.662;2022-12-29T23:17:59;96430.22;;;5.62;100.00
32747;BME280;19118;50.860;13.662;2022-12-29T23:23:00;96405.03;;;5.90;100.00
32747;BME280;19118;50.860;13.662;2022-12-29T23:28:00;96415.41;;;5.83;100.00
32747;BME280;19118;50.860;13.662;2022-12-29T23:33:01;96417.47;;;5.88;100.00
32747;BME280;19118;50.860;13.662;2022-12-29T23:38:01;96423.44;;;5.82;100.00
32747;BME280;19118;50.860;13.662;2022-12-29T23:43:01;96413.88;;;5.89;100.00
32747;BME280;19118;50.860;13.662;2022-12-29T23:48:02;96427.31;;;5.86;100.00
32747;BME280;19118;50.860;13.662;2022-12-29T23:53:02;96433.16;;;5.96;100.00
32747;BME280;19118;50.860;13.662;2022-12-29T23:58:03;96447.63;;;5.92;100.00
